createdAt,value
2019-05-18T00:00:31.241Z,9.80
2019-05-18T00:02:57.306Z,9.60
2019-05-18T00:05:23.355Z,9.70
2019-05-18T00:07:49.401Z,9.70
2019-05-18T00:10:16.163Z,9.60
2019-05-18T00:12:42.222Z,9.60
2019-05-18T00:15:08.858Z,9.50
2019-05-18T00:17:34.918Z,9.50
2019-05-18T00:20:01.394Z,9.50
2019-05-18T00:22:27.536Z,9.40
2019-05-18T00:24:53.640Z,9.40
2019-05-18T00:27:19.693Z,9.40
2019-05-18T00:29:45.741Z,9.40
2019-05-18T00:32:11.826Z,9.50
2019-05-18T00:34:37.961Z,9.40
2019-05-18T00:37:04.082Z,9.40
2019-05-18T00:39:30.198Z,9.30
2019-05-18T00:41:56.335Z,9.30
2019-05-18T00:44:22.389Z,9.30
2019-05-18T00:46:48.457Z,9.20
2019-05-18T00:49:14.494Z,9.20
2019-05-18T00:51:40.570Z,9.20
2019-05-18T00:54:06.604Z,9.20
2019-05-18T00:56:32.652Z,9.10
2019-05-18T00:58:58.754Z,9.10
2019-05-18T01:01:24.815Z,9.10
2019-05-18T01:03:51.075Z,9.10
2019-05-18T01:06:17.120Z,9.10
2019-05-18T01:08:43.162Z,9.10
2019-05-18T01:11:09.221Z,9.10
2019-05-18T01:13:35.263Z,9.10
2019-05-18T01:16:01.620Z,9.00
2019-05-18T01:18:27.673Z,8.90
2019-05-18T01:20:53.822Z,8.90
2019-05-18T01:23:19.872Z,8.90
2019-05-18T01:25:45.908Z,8.90
2019-05-18T01:28:11.999Z,8.90
2019-05-18T01:30:38.128Z,8.90
2019-05-18T01:33:04.205Z,8.90
2019-05-18T01:35:30.277Z,8.80
2019-05-18T01:37:56.409Z,8.80
2019-05-18T01:40:22.464Z,8.80
2019-05-18T01:42:48.513Z,8.80
2019-05-18T01:45:17.296Z,8.80
2019-05-18T01:47:43.043Z,8.80
2019-05-18T01:50:09.188Z,8.70
2019-05-18T01:52:35.237Z,8.60
2019-05-18T01:55:02.011Z,8.60
2019-05-18T01:57:28.143Z,8.60
2019-05-18T01:59:54.194Z,8.60
2019-05-18T02:02:20.273Z,8.60
2019-05-18T02:04:46.317Z,8.00
2019-05-18T02:07:12.356Z,8.60
2019-05-18T02:09:38.425Z,8.50
2019-05-18T02:12:04.471Z,8.50
2019-05-18T02:14:30.521Z,8.40
2019-05-18T02:16:56.587Z,8.40
2019-05-18T02:19:24.848Z,8.40
2019-05-18T02:21:50.592Z,8.30
2019-05-18T02:24:16.624Z,8.30
2019-05-18T02:26:42.675Z,8.30
2019-05-18T02:29:08.749Z,8.30
2019-05-18T02:31:34.792Z,8.20
2019-05-18T02:34:00.865Z,8.20
2019-05-18T02:36:26.905Z,8.20
2019-05-18T02:38:52.955Z,8.20
2019-05-18T02:41:19.106Z,8.10
2019-05-18T02:43:45.152Z,8.10
2019-05-18T02:46:11.209Z,8.00
2019-05-18T02:48:48.449Z,8.00
2019-05-18T02:51:05.917Z,8.00
2019-05-18T02:53:31.953Z,8.00
2019-05-18T02:55:58.000Z,8.00
2019-05-18T02:58:24.062Z,8.10
2019-05-18T03:00:50.127Z,8.10
2019-05-18T03:03:16.181Z,8.10
2019-05-18T03:05:42.928Z,8.10
2019-05-18T03:08:08.984Z,8.10
2019-05-18T03:10:35.121Z,8.00
2019-05-18T03:13:01.183Z,8.00
2019-05-18T03:15:27.225Z,8.00
2019-05-18T03:17:53.302Z,8.00
2019-05-18T03:20:19.345Z,8.00
2019-05-18T03:22:45.702Z,8.00
2019-05-18T03:25:12.262Z,8.00
2019-05-18T03:27:38.308Z,7.90
2019-05-18T03:30:05.370Z,7.90
2019-05-18T03:32:31.433Z,7.90
2019-05-18T03:34:57.835Z,7.90
2019-05-18T03:37:24.050Z,8.00
2019-05-18T03:39:50.107Z,8.00
2019-05-18T03:42:16.172Z,8.00
2019-05-18T03:44:42.321Z,8.00
2019-05-18T03:47:08.386Z,8.00
2019-05-18T03:49:34.422Z,8.00
2019-05-18T03:52:00.499Z,8.10
2019-05-18T03:54:26.546Z,8.20
2019-05-18T03:56:52.589Z,8.30
2019-05-18T03:59:18.642Z,8.30
2019-05-18T04:01:44.694Z,8.30
2019-05-18T04:04:10.757Z,8.30
2019-05-18T04:06:36.806Z,8.30
2019-05-18T04:09:04.548Z,8.40
2019-05-18T04:11:30.609Z,8.40
2019-05-18T04:13:56.646Z,8.40
2019-05-18T04:16:22.722Z,8.40
2019-05-18T04:18:48.758Z,8.40
2019-05-18T04:21:14.805Z,8.30
2019-05-18T04:23:40.870Z,8.30
2019-05-18T04:26:06.921Z,8.30
2019-05-18T04:28:32.974Z,8.30
2019-05-18T04:30:59.038Z,8.30
2019-05-18T04:33:25.098Z,8.40
2019-05-18T04:35:51.139Z,8.50
2019-05-18T04:38:17.191Z,8.60
2019-05-18T04:40:43.348Z,8.60
2019-05-18T04:43:09.482Z,8.60
2019-05-18T04:45:35.540Z,8.80
2019-05-18T04:48:01.607Z,8.90
2019-05-18T04:50:27.646Z,9.00
2019-05-18T04:52:53.725Z,9.10
2019-05-18T04:55:19.795Z,9.10
2019-05-18T04:57:45.891Z,9.10
2019-05-18T05:00:12.414Z,8.90
2019-05-18T05:02:38.609Z,8.90
2019-05-18T05:05:05.224Z,9.00
2019-05-18T05:07:31.385Z,9.20
2019-05-18T05:09:57.458Z,9.40
2019-05-18T05:12:23.493Z,9.60
2019-05-18T05:14:49.560Z,9.80
2019-05-18T05:17:15.596Z,9.90
2019-05-18T05:19:41.657Z,10.10
2019-05-18T05:22:07.698Z,10.30
2019-05-18T05:24:33.749Z,10.40
2019-05-18T05:26:59.788Z,10.50
2019-05-18T05:29:25.857Z,10.70
2019-05-18T05:31:51.994Z,10.80
2019-05-18T05:34:18.043Z,11.00
2019-05-18T05:36:44.084Z,11.20
2019-05-18T05:39:10.153Z,11.30
2019-05-18T05:41:36.196Z,11.40
2019-05-18T05:44:02.267Z,11.60
2019-05-18T05:46:28.311Z,11.90
2019-05-18T05:48:54.365Z,12.00
2019-05-18T05:51:21.321Z,12.30
2019-05-18T05:53:47.382Z,12.40
2019-05-18T05:56:13.525Z,12.60
2019-05-18T05:58:39.560Z,12.80
2019-05-18T06:01:05.624Z,13.10
2019-05-18T06:03:31.721Z,13.30
2019-05-18T06:05:57.778Z,13.50
2019-05-18T06:08:23.825Z,13.70
2019-05-18T06:10:49.872Z,13.60
2019-05-18T06:13:15.941Z,13.60
2019-05-18T06:15:41.995Z,13.70
2019-05-18T06:18:08.059Z,14.00
2019-05-18T06:20:34.098Z,14.00
2019-05-18T06:23:00.251Z,14.30
2019-05-18T06:25:26.311Z,14.30
2019-05-18T06:27:52.362Z,14.20
2019-05-18T06:30:18.839Z,14.10
2019-05-18T06:32:44.885Z,14.10
2019-05-18T06:35:11.330Z,14.20
2019-05-18T06:37:37.391Z,14.20
2019-05-18T06:40:05.428Z,14.20
2019-05-18T06:42:31.505Z,14.20
2019-05-18T06:44:57.572Z,14.40
2019-05-18T06:47:23.620Z,14.60
2019-05-18T06:49:49.681Z,14.80
2019-05-18T06:52:15.729Z,14.80
2019-05-18T06:54:41.790Z,14.90
2019-05-18T06:57:09.532Z,15.20
2019-05-18T06:59:36.100Z,15.30
2019-05-18T07:02:02.146Z,15.40
2019-05-18T07:04:28.192Z,15.40
2019-05-18T07:06:54.238Z,15.50
2019-05-18T07:09:20.298Z,15.70
2019-05-18T07:11:46.436Z,15.90
2019-05-18T07:14:24.969Z,16.00
2019-05-18T07:16:40.427Z,16.20
2019-05-18T07:19:06.473Z,16.10
2019-05-18T07:21:32.535Z,16.10
2019-05-18T07:24:01.377Z,16.00
2019-05-18T07:26:27.505Z,16.10
2019-05-18T07:28:53.561Z,16.10
2019-05-18T07:31:19.849Z,16.30
2019-05-18T07:33:45.977Z,16.70
2019-05-18T07:36:12.036Z,17.00
2019-05-18T07:38:38.080Z,16.90
2019-05-18T07:41:04.131Z,16.90
2019-05-18T07:43:30.173Z,17.20
2019-05-18T07:45:56.238Z,17.60
2019-05-18T07:48:22.273Z,17.40
2019-05-18T07:50:48.337Z,17.60
2019-05-18T07:53:14.383Z,17.50
2019-05-18T07:55:40.460Z,17.20
2019-05-18T07:58:06.503Z,17.20
2019-05-18T08:00:32.560Z,17.60
2019-05-18T08:02:58.706Z,17.80
2019-05-18T08:05:24.770Z,18.00
2019-05-18T08:07:50.829Z,18.50
2019-05-18T08:10:34.732Z,18.90
2019-05-18T08:13:00.782Z,19.30
2019-05-18T08:15:27.053Z,19.50
2019-05-18T08:17:53.102Z,19.40
2019-05-18T08:20:19.154Z,19.30
2019-05-18T08:22:45.211Z,19.20
2019-05-18T08:25:11.276Z,19.70
2019-05-18T08:27:37.323Z,21.20
2019-05-18T08:30:04.774Z,20.20
2019-05-18T08:32:30.857Z,20.50
2019-05-18T08:34:57.014Z,20.80
2019-05-18T08:37:23.064Z,20.40
2019-05-18T08:39:49.129Z,20.40
2019-05-18T08:42:15.182Z,20.50
2019-05-18T08:44:41.220Z,20.50
2019-05-18T08:47:07.286Z,20.80
2019-05-18T08:49:33.341Z,21.10
2019-05-18T08:52:07.857Z,20.70
2019-05-18T08:54:27.344Z,20.50
2019-05-18T08:56:53.406Z,20.70
2019-05-18T08:59:19.444Z,20.90
2019-05-18T09:01:45.491Z,20.70
2019-05-18T09:04:11.569Z,20.60
2019-05-18T09:06:37.603Z,20.90
2019-05-18T09:09:04.960Z,21.40
2019-05-18T09:11:31.006Z,22.10
2019-05-18T09:13:57.074Z,22.40
2019-05-18T09:16:23.117Z,22.40
2019-05-18T09:18:49.160Z,22.70
2019-05-18T09:21:15.237Z,22.90
2019-05-18T09:23:41.283Z,23.20
2019-05-18T09:26:07.333Z,23.20
2019-05-18T09:28:33.369Z,22.90
2019-05-18T09:30:59.448Z,22.90
2019-05-18T09:33:25.584Z,22.30
2019-05-18T09:35:51.628Z,22.20
2019-05-18T09:38:17.726Z,22.00
2019-05-18T09:40:43.833Z,21.60
2019-05-18T09:43:09.900Z,21.10
2019-05-18T09:45:35.945Z,21.00
2019-05-18T09:48:02.203Z,21.30
2019-05-18T09:50:28.363Z,21.70
2019-05-18T09:52:54.426Z,22.00
2019-05-18T09:55:20.612Z,22.40
2019-05-18T09:57:46.653Z,23.00
2019-05-18T10:00:13.617Z,23.50
2019-05-18T10:02:39.696Z,23.80
2019-05-18T10:05:06.266Z,24.20
2019-05-18T10:07:32.308Z,24.70
2019-05-18T10:09:58.344Z,24.90
2019-05-18T10:12:24.826Z,25.10
2019-05-18T10:14:51.162Z,25.30
2019-05-18T10:17:17.224Z,25.20
2019-05-18T10:19:43.283Z,24.80
2019-05-18T10:22:09.333Z,24.70
2019-05-18T10:24:35.486Z,24.70
2019-05-18T10:27:01.543Z,24.80
2019-05-18T10:29:27.601Z,25.20
2019-05-18T10:31:53.664Z,25.50
2019-05-18T10:34:19.704Z,25.20
2019-05-18T10:36:45.761Z,25.10
2019-05-18T10:39:11.805Z,25.30
2019-05-18T10:41:37.866Z,25.00
2019-05-18T10:44:04.022Z,24.80
2019-05-18T10:46:30.086Z,24.70
2019-05-18T10:48:56.141Z,24.50
2019-05-18T10:51:22.211Z,24.20
2019-05-18T10:53:48.244Z,23.70
2019-05-18T10:56:14.296Z,23.40
2019-05-18T10:58:40.361Z,23.00
2019-05-18T11:01:06.510Z,23.00
2019-05-18T11:03:32.552Z,22.90
2019-05-18T11:05:58.624Z,23.10
2019-05-18T11:08:24.683Z,23.10
2019-05-18T11:10:50.804Z,22.90
2019-05-18T11:13:17.442Z,22.60
2019-05-18T11:15:43.620Z,22.60
2019-05-18T11:18:09.669Z,22.70
2019-05-18T11:20:35.741Z,22.80
2019-05-18T11:23:01.779Z,22.70
2019-05-18T11:25:27.823Z,22.60
2019-05-18T11:27:53.899Z,22.50
2019-05-18T11:30:20.456Z,22.40
2019-05-18T11:32:46.515Z,22.50
2019-05-18T11:35:13.056Z,22.40
2019-05-18T11:37:39.130Z,22.60
2019-05-18T11:40:06.079Z,22.70
2019-05-18T11:42:32.125Z,23.00
2019-05-18T11:44:58.180Z,23.60
2019-05-18T11:47:24.241Z,24.30
2019-05-18T11:49:50.351Z,24.90
2019-05-18T11:52:16.491Z,25.40
2019-05-18T11:54:42.588Z,25.60
2019-05-18T11:57:08.745Z,25.50
2019-05-18T11:59:34.896Z,25.70
2019-05-18T12:02:00.950Z,26.00
2019-05-18T12:04:27.015Z,25.80
2019-05-18T12:06:53.130Z,25.60
2019-05-18T12:09:19.256Z,25.50
2019-05-18T12:11:45.385Z,25.40
2019-05-18T12:14:11.441Z,25.10
2019-05-18T12:16:37.511Z,24.80
2019-05-18T12:19:03.564Z,24.90
2019-05-18T12:21:29.618Z,25.30
2019-05-18T12:23:55.685Z,25.60
2019-05-18T12:26:21.737Z,25.50
2019-05-18T12:28:47.797Z,25.70
2019-05-18T12:31:13.866Z,25.80
2019-05-18T12:33:40.008Z,26.00
2019-05-18T12:36:06.861Z,25.80
2019-05-18T12:38:33.017Z,25.90
2019-05-18T12:40:59.065Z,25.70
2019-05-18T12:43:25.879Z,25.40
2019-05-18T12:45:51.929Z,25.30
2019-05-18T12:48:18.177Z,25.40
2019-05-18T12:50:44.249Z,25.50
2019-05-18T12:53:10.303Z,25.70
2019-05-18T12:55:36.381Z,25.90
2019-05-18T12:58:02.735Z,25.70
2019-05-18T13:00:29.210Z,25.40
2019-05-18T13:02:55.266Z,25.50
2019-05-18T13:05:21.318Z,25.70
2019-05-18T13:07:47.369Z,25.60
2019-05-18T13:10:16.155Z,25.70
2019-05-18T13:12:42.189Z,25.70
2019-05-18T13:15:09.645Z,25.70
2019-05-18T13:17:35.906Z,26.00
2019-05-18T13:20:06.727Z,26.40
2019-05-18T13:22:32.771Z,26.70
2019-05-18T13:24:58.841Z,26.60
2019-05-18T13:27:38.277Z,26.60
2019-05-18T13:29:52.844Z,26.50
2019-05-18T13:32:18.921Z,26.50
2019-05-18T13:34:44.979Z,26.60
2019-05-18T13:37:11.024Z,26.60
2019-05-18T13:39:37.106Z,26.40
2019-05-18T13:42:03.151Z,26.30
2019-05-18T13:44:29.197Z,26.10
2019-05-18T13:46:55.361Z,26.30
2019-05-18T13:49:21.421Z,26.50
2019-05-18T13:51:47.473Z,27.20
2019-05-18T13:54:13.533Z,27.90
2019-05-18T13:56:40.003Z,28.10
2019-05-18T13:59:06.218Z,28.40
2019-05-18T14:01:32.300Z,28.00
2019-05-18T14:03:58.356Z,27.40
2019-05-18T14:06:24.385Z,27.40
2019-05-18T14:08:50.460Z,27.30
2019-05-18T14:11:16.609Z,27.80
2019-05-18T14:13:42.649Z,28.90
2019-05-18T14:16:08.730Z,29.80
2019-05-18T14:18:34.797Z,29.40
2019-05-18T14:21:00.841Z,30.10
2019-05-18T14:23:26.908Z,30.30
2019-05-18T14:25:52.965Z,30.80
2019-05-18T14:28:19.014Z,31.30
2019-05-18T14:30:45.082Z,31.40
2019-05-18T14:33:11.121Z,30.90
2019-05-18T14:35:37.212Z,30.20
2019-05-18T14:38:03.364Z,30.40
2019-05-18T14:40:29.429Z,30.40
2019-05-18T14:42:55.494Z,30.40
2019-05-18T14:45:21.581Z,30.70
2019-05-18T14:47:47.632Z,31.20
2019-05-18T14:50:15.315Z,31.60
2019-05-18T14:52:41.366Z,31.20
2019-05-18T14:55:07.529Z,30.30
2019-05-18T14:57:33.867Z,29.40
2019-05-18T15:00:02.410Z,29.20
2019-05-18T15:02:27.901Z,29.50
2019-05-18T15:04:56.857Z,29.00
2019-05-18T15:07:22.039Z,29.80
2019-05-18T15:09:48.106Z,30.80
2019-05-18T15:12:14.164Z,32.40
2019-05-18T15:14:40.208Z,33.70
2019-05-18T15:17:06.265Z,35.00
2019-05-18T15:19:32.338Z,36.20
2019-05-18T15:21:58.403Z,36.20
2019-05-18T15:24:24.448Z,37.10
2019-05-18T15:26:50.601Z,36.60
2019-05-18T15:29:16.651Z,36.00
2019-05-18T15:31:42.708Z,36.30
2019-05-18T15:34:08.786Z,36.30
2019-05-18T15:36:34.915Z,36.40
2019-05-18T15:39:00.988Z,36.00
2019-05-18T15:41:27.166Z,36.00
2019-05-18T15:43:53.199Z,34.60
2019-05-18T15:46:19.244Z,33.30
2019-05-18T15:48:45.343Z,32.70
2019-05-18T15:51:11.680Z,31.90
2019-05-18T15:53:37.743Z,32.20
2019-05-18T15:56:06.261Z,32.40
2019-05-18T15:58:31.978Z,32.90
2019-05-18T16:00:58.033Z,33.50
2019-05-18T16:03:24.091Z,34.00
2019-05-18T16:05:50.154Z,34.80
2019-05-18T16:08:16.206Z,35.10
2019-05-18T16:10:42.341Z,35.00
2019-05-18T16:13:08.408Z,35.60
2019-05-18T16:15:34.460Z,35.60
2019-05-18T16:18:00.602Z,35.20
2019-05-18T16:20:26.677Z,36.00
2019-05-18T16:22:52.732Z,36.40
2019-05-18T16:25:18.891Z,36.80
2019-05-18T16:27:45.044Z,37.10
2019-05-18T16:30:11.720Z,36.90
2019-05-18T16:32:37.961Z,37.70
2019-05-18T16:35:07.926Z,37.80
2019-05-18T16:37:33.981Z,38.10
2019-05-18T16:40:00.061Z,37.80
2019-05-18T16:42:26.112Z,36.90
2019-05-18T16:44:52.161Z,36.80
2019-05-18T16:47:18.228Z,37.20
2019-05-18T16:49:44.430Z,36.70
2019-05-18T16:52:10.564Z,36.60
2019-05-18T16:54:36.692Z,36.40
2019-05-18T16:57:03.073Z,36.80
2019-05-18T16:59:29.140Z,36.70
2019-05-18T17:01:55.288Z,36.30
2019-05-18T17:04:21.377Z,34.90
2019-05-18T17:06:47.594Z,33.40
2019-05-18T17:09:13.656Z,32.20
2019-05-18T17:11:39.735Z,30.70
2019-05-18T17:14:05.820Z,29.30
2019-05-18T17:16:31.891Z,27.80
2019-05-18T17:18:57.940Z,26.70
2019-05-18T17:21:23.997Z,25.80
2019-05-18T17:23:53.378Z,25.20
2019-05-18T17:26:18.100Z,24.80
2019-05-18T17:28:44.152Z,24.50
2019-05-18T17:31:10.245Z,24.30
2019-05-18T17:33:36.396Z,24.20
2019-05-18T17:36:02.549Z,24.10
2019-05-18T17:38:28.634Z,23.50
2019-05-18T17:40:54.763Z,23.10
2019-05-18T17:43:20.824Z,22.80
2019-05-18T17:45:46.972Z,22.50
2019-05-18T17:48:13.034Z,22.30
2019-05-18T17:50:39.079Z,22.00
2019-05-18T17:53:05.156Z,21.60
2019-05-18T17:55:31.244Z,21.50
2019-05-18T17:57:57.352Z,21.40
2019-05-18T18:00:23.410Z,21.10
2019-05-18T18:02:49.566Z,20.70
2019-05-18T18:05:15.705Z,20.60
2019-05-18T18:07:41.757Z,20.40
2019-05-18T18:10:08.712Z,20.30
2019-05-18T18:12:34.775Z,20.20
2019-05-18T18:15:00.841Z,20.10
2019-05-18T18:17:26.872Z,20.00
2019-05-18T18:19:52.952Z,19.80
2019-05-18T18:22:18.989Z,19.70
2019-05-18T18:24:45.059Z,19.50
2019-05-18T18:27:24.159Z,19.50
2019-05-18T18:29:39.156Z,19.40
2019-05-18T18:32:05.325Z,19.20
2019-05-18T18:34:31.371Z,19.00
2019-05-18T18:36:57.432Z,18.60
2019-05-18T18:39:23.504Z,18.40
2019-05-18T18:41:49.634Z,18.30
2019-05-18T18:44:16.193Z,18.30
2019-05-18T18:46:42.306Z,18.20
2019-05-18T18:49:08.338Z,18.00
2019-05-18T18:51:34.427Z,17.90
2019-05-18T18:54:00.562Z,17.80
2019-05-18T18:56:26.613Z,17.70
2019-05-18T18:58:52.653Z,17.60
2019-05-18T19:01:18.712Z,17.50
2019-05-18T19:03:44.752Z,17.40
2019-05-18T19:06:10.820Z,17.30
2019-05-18T19:08:36.861Z,17.20
2019-05-18T19:11:02.933Z,17.20
2019-05-18T19:13:28.974Z,17.10
2019-05-18T19:15:55.021Z,17.00
2019-05-18T19:18:21.081Z,16.90
2019-05-18T19:20:47.136Z,16.90
2019-05-18T19:23:13.181Z,16.80
2019-05-18T19:25:39.229Z,16.70
2019-05-18T19:28:05.275Z,16.60
2019-05-18T19:30:31.324Z,16.60
2019-05-18T19:32:57.403Z,16.50
2019-05-18T19:35:23.525Z,16.50
2019-05-18T19:37:49.612Z,16.40
2019-05-18T19:40:16.244Z,16.30
2019-05-18T19:42:42.298Z,16.20
2019-05-18T19:45:09.052Z,16.20
2019-05-18T19:47:35.203Z,16.10
2019-05-18T19:50:01.370Z,16.10
2019-05-18T19:52:27.519Z,16.10
2019-05-18T19:54:53.662Z,16.00
2019-05-18T19:57:19.709Z,16.00
2019-05-18T19:59:45.781Z,16.00
2019-05-18T20:02:11.840Z,15.90
2019-05-18T20:04:37.916Z,15.80
2019-05-18T20:07:04.043Z,15.70
2019-05-18T20:09:30.094Z,15.60
2019-05-18T20:11:56.163Z,15.50
2019-05-18T20:14:22.208Z,15.40
2019-05-18T20:16:48.401Z,15.40
2019-05-18T20:19:14.549Z,15.40
2019-05-18T20:21:40.593Z,15.30
2019-05-18T20:24:06.659Z,15.20
2019-05-18T20:26:32.814Z,15.10
2019-05-18T20:28:58.882Z,15.10
2019-05-18T20:31:24.926Z,15.00
2019-05-18T20:33:50.964Z,14.80
2019-05-18T20:36:17.024Z,14.60
2019-05-18T20:38:43.098Z,14.40
2019-05-18T20:41:09.153Z,14.30
2019-05-18T20:43:35.717Z,14.30
2019-05-18T20:46:01.861Z,14.30
2019-05-18T20:48:27.926Z,14.30
2019-05-18T20:50:53.971Z,14.20
2019-05-18T20:53:20.029Z,14.20
2019-05-18T20:55:46.080Z,14.20
2019-05-18T20:58:12.149Z,14.20
2019-05-18T21:00:38.768Z,14.20
2019-05-18T21:03:05.077Z,14.10
2019-05-18T21:05:31.217Z,14.10
2019-05-18T21:07:57.273Z,14.10
2019-05-18T21:10:23.336Z,14.10
2019-05-18T21:12:49.373Z,14.00
2019-05-18T21:15:15.835Z,14.00
2019-05-18T21:17:41.901Z,13.80
2019-05-18T21:20:08.766Z,13.80
2019-05-18T21:22:34.933Z,13.60
2019-05-18T21:25:01.177Z,13.40
2019-05-18T21:27:27.223Z,13.40
2019-05-18T21:29:53.278Z,13.30
2019-05-18T21:32:19.312Z,13.20
2019-05-18T21:34:45.370Z,13.00
2019-05-18T21:37:11.421Z,12.90
2019-05-18T21:39:37.514Z,12.70
2019-05-18T21:42:03.591Z,12.70
2019-05-18T21:44:29.627Z,12.70
2019-05-18T21:46:55.673Z,12.70
2019-05-18T21:49:21.733Z,12.70
2019-05-18T21:51:47.793Z,12.60
2019-05-18T21:54:13.863Z,12.50
2019-05-18T21:56:39.908Z,12.30
2019-05-18T21:59:12.016Z,12.20
2019-05-18T22:01:34.132Z,12.10
2019-05-18T22:04:00.172Z,12.10
2019-05-18T22:06:26.245Z,12.00
2019-05-18T22:08:52.385Z,12.00
2019-05-18T22:11:18.439Z,12.00
2019-05-18T22:13:44.488Z,12.10
2019-05-18T22:16:10.529Z,12.20
2019-05-18T22:18:36.609Z,12.30
2019-05-18T22:21:02.667Z,12.20
2019-05-18T22:23:28.751Z,12.10
2019-05-18T22:25:57.026Z,12.20
2019-05-18T22:28:22.763Z,12.20
2019-05-18T22:30:48.818Z,12.20
2019-05-18T22:33:14.856Z,12.10
2019-05-18T22:35:40.916Z,12.20
2019-05-18T22:38:06.957Z,12.20
2019-05-18T22:40:33.015Z,12.10
2019-05-18T22:42:59.073Z,12.00
2019-05-18T22:45:25.129Z,12.00
2019-05-18T22:47:51.293Z,12.00
2019-05-18T22:50:18.575Z,12.10
2019-05-18T22:52:44.728Z,12.00
2019-05-18T22:55:11.185Z,11.90
2019-05-18T22:57:37.276Z,11.80
2019-05-18T23:00:05.063Z,11.70
2019-05-18T23:02:31.135Z,11.80
2019-05-18T23:04:57.175Z,11.80
2019-05-18T23:07:23.228Z,11.80
2019-05-18T23:09:49.278Z,11.70
2019-05-18T23:12:15.313Z,11.80
2019-05-18T23:14:41.365Z,11.80
2019-05-18T23:17:07.421Z,11.70
2019-05-18T23:19:33.489Z,11.70
2019-05-18T23:21:59.544Z,11.60
2019-05-18T23:24:25.606Z,11.50
2019-05-18T23:26:51.640Z,11.50
2019-05-18T23:29:17.693Z,11.50
2019-05-18T23:31:43.744Z,11.50
2019-05-18T23:34:09.802Z,11.40
2019-05-18T23:36:35.849Z,11.10
2019-05-18T23:39:01.908Z,11.00
2019-05-18T23:41:27.975Z,11.00
2019-05-18T23:43:54.120Z,11.10
2019-05-18T23:46:20.170Z,11.10
2019-05-18T23:48:46.232Z,11.10
2019-05-18T23:51:12.309Z,11.10
2019-05-18T23:53:38.373Z,11.20
2019-05-18T23:56:04.520Z,11.10
2019-05-18T23:58:30.597Z,11.10
